Wetterdaten: aktuell Samstag, 17.08.2019 12:50
Datum Zeit Temp. A. Feuchte A. Luftdruck Regen Wind Richtung Richtung Taupunkt Windchill Windben
17.08.2019 12:50 21,3 C 72 % 1013,5 hPa 0,0 l/m 10,0 km/h (2 Bft) S 169 16,0 C 20,1 C 17,7 km/h (3 Bft)
17.08.2019 12:45 21,5 C 70 % 1013,5 hPa 0,0 l/m 9,8 km/h (2 Bft) S-SO 151 15,8 C 20,4 C 16,1 km/h (3 Bft)
17.08.2019 12:40 21,7 C 73 % 1013,6 hPa 0,0 l/m 7,1 km/h (2 Bft) S-SO 160 16,6 C 21,5 C 14,5 km/h (3 Bft)
17.08.2019 12:35 21,7 C 72 % 1013,5 hPa 0,0 l/m 7,9 km/h (2 Bft) S 169 16,4 C 21,2 C 14,5 km/h (3 Bft)
17.08.2019 12:30 21,8 C 72 % 1013,6 hPa 0,0 l/m 5,9 km/h (2 Bft) S-SO 153 16,5 C 21,8 C 11,3 km/h (2 Bft)
17.08.2019 12:25 21,8 C 71 % 1013,6 hPa 0,0 l/m 8,1 km/h (2 Bft) S-SW 195 16,3 C 21,2 C 14,5 km/h (3 Bft)
17.08.2019 12:20 21,8 C 70 % 1013,5 hPa 0,0 l/m 9,1 km/h (2 Bft) S 183 16,1 C 20,9 C 14,5 km/h (3 Bft)
17.08.2019 12:15 21,9 C 70 % 1013,5 hPa 0,0 l/m 7,3 km/h (2 Bft) S 184 16,2 C 21,6 C 11,3 km/h (2 Bft)
17.08.2019 12:10 21,9 C 72 % 1013,5 hPa 0,0 l/m 9,3 km/h (2 Bft) S 186 16,6 C 20,9 C 17,7 km/h (3 Bft)
17.08.2019 12:05 22,0 C 69 % 1013,5 hPa 0,0 l/m 6,9 km/h (2 Bft) S 186 16,0 C 21,8 C 11,3 km/h (2 Bft)
17.08.2019 12:00 22,1 C 69 % 1013,6 hPa 0,0 l/m 5,6 km/h (2 Bft) S-SW 212 16,1 C 22,1 C 11,3 km/h (2 Bft)
17.08.2019 11:55 22,2 C 68 % 1013,5 hPa 0,0 l/m 8,4 km/h (2 Bft) SO 143 16,0 C 21,5 C 16,1 km/h (3 Bft)
17.08.2019 11:50 22,2 C 65 % 1013,4 hPa 0,0 l/m 7,0 km/h (2 Bft) S 184 15,3 C 22,0 C 16,1 km/h (3 Bft)
17.08.2019 11:45 22,2 C 69 % 1013,6 hPa 0,0 l/m 8,5 km/h (2 Bft) S-SO 165 16,2 C 21,5 C 16,1 km/h (3 Bft)
17.08.2019 11:40 22,3 C 69 % 1013,6 hPa 0,0 l/m 8,4 km/h (2 Bft) S 184 16,3 C 21,6 C 14,5 km/h (3 Bft)
17.08.2019 11:35 22,3 C 68 % 1013,6 hPa 0,0 l/m 8,2 km/h (2 Bft) S 188 16,1 C 21,7 C 14,5 km/h (3 Bft)
17.08.2019 11:30 22,3 C 66 % 1013,6 hPa 0,0 l/m 8,6 km/h (2 Bft) S 177 15,6 C 21,6 C 14,5 km/h (3 Bft)
17.08.2019 11:25 22,4 C 70 % 1013,6 hPa 0,0 l/m 5,1 km/h (1 Bft) S-SW 200 16,7 C 22,4 C 12,9 km/h (3 Bft)
17.08.2019 11:20 22,3 C 67 % 1013,6 hPa 0,0 l/m 7,9 km/h (2 Bft) SO 130 15,9 C 21,8 C 14,5 km/h (3 Bft)
17.08.2019 11:15 22,2 C 70 % 1013,5 hPa 0,0 l/m 8,2 km/h (2 Bft) S-SW 204 16,5 C 21,6 C 12,9 km/h (3 Bft)
17.08.2019 11:10 22,0 C 72 % 1013,4 hPa 0,0 l/m 3,6 km/h (1 Bft) SO 133 16,7 C 22,0 C 8,0 km/h (2 Bft)
17.08.2019 11:05 21,6 C 68 % 1013,4 hPa 0,0 l/m 6,2 km/h (2 Bft) S 175 15,4 C 21,6 C 11,3 km/h (2 Bft)
17.08.2019 11:00 21,3 C 68 % 1013,3 hPa 0,0 l/m 5,4 km/h (2 Bft) SW 218 15,1 C 21,3 C 12,9 km/h (3 Bft)
17.08.2019 10:55 20,9 C 72 % 1013,3 hPa 0,0 l/m 8,2 km/h (2 Bft) S 169 15,7 C 20,2 C 16,1 km/h (3 Bft)
17.08.2019 10:50 20,6 C 75 % 1013,4 hPa 0,0 l/m 7,1 km/h (2 Bft) O-SO 119 16,0 C 20,3 C 11,3 km/h (2 Bft)
17.08.2019 10:45 20,3 C 75 % 1013,4 hPa 0,0 l/m 6,5 km/h (2 Bft) O 96 15,7 C 20,3 C 11,3 km/h (2 Bft)
17.08.2019 10:40 20,1 C 77 % 1013,2 hPa 0,0 l/m 7,4 km/h (2 Bft) O 92 15,9 C 19,7 C 11,3 km/h (2 Bft)
17.08.2019 10:35 19,9 C 78 % 1013,3 hPa 0,0 l/m 4,8 km/h (1 Bft) O 92 15,9 C 19,9 C 6,4 km/h (2 Bft)
17.08.2019 10:30 19,7 C 75 % 1013,3 hPa 0,0 l/m 1,6 km/h (1 Bft) O 84 15,1 C 19,7 C 6,4 km/h (2 Bft)
17.08.2019 10:25 19,4 C 72 % 1013,3 hPa 0,0 l/m 2,8 km/h (1 Bft) N-NW 344 14,2 C 19,4 C 6,4 km/h (2 Bft)
17.08.2019 10:20 19,3 C 74 % 1013,3 hPa 0,0 l/m 3,0 km/h (1 Bft) W-SW 242 14,5 C 19,3 C 6,4 km/h (2 Bft)
17.08.2019 10:15 19,2 C 72 % 1013,2 hPa 0,0 l/m 4,8 km/h (1 Bft) SW 236 14,0 C 19,2 C 9,7 km/h (2 Bft)
17.08.2019 10:10 19,1 C 74 % 1013,3 hPa 0,0 l/m 6,9 km/h (2 Bft) SW 220 14,4 C 18,9 C 9,7 km/h (2 Bft)
17.08.2019 10:05 18,8 C 77 % 1013,5 hPa 0,0 l/m 7,7 km/h (2 Bft) S-SW 213 14,7 C 18,2 C 12,9 km/h (3 Bft)
17.08.2019 10:00 18,6 C 76 % 1013,4 hPa 0,0 l/m 10,1 km/h (2 Bft) S-SW 208 14,3 C 17,1 C 14,5 km/h (3 Bft)
17.08.2019 09:55 18,4 C 78 % 1013,4 hPa 0,0 l/m 9,2 km/h (2 Bft) SW 225 14,5 C 17,2 C 16,1 km/h (3 Bft)
17.08.2019 09:50 18,2 C 79 % 1013,4 hPa 0,0 l/m 9,0 km/h (2 Bft) SW 219 14,5 C 17,0 C 14,5 km/h (3 Bft)
17.08.2019 09:45 18,0 C 79 % 1013,5 hPa 0,0 l/m 10,1 km/h (2 Bft) W-SW 241 14,3 C 16,4 C 16,1 km/h (3 Bft)
17.08.2019 09:40 17,8 C 80 % 1013,5 hPa 0,0 l/m 10,2 km/h (2 Bft) SW 221 14,3 C 16,1 C 14,5 km/h (3 Bft)
17.08.2019 09:35 17,5 C 81 % 1013,5 hPa 0,0 l/m 10,1 km/h (2 Bft) SW 224 14,2 C 15,8 C 14,5 km/h (3 Bft)
17.08.2019 09:30 17,3 C 81 % 1013,5 hPa 0,0 l/m 9,4 km/h (2 Bft) SW 214 14,0 C 15,9 C 12,9 km/h (3 Bft)
17.08.2019 09:25 17,1 C 81 % 1013,6 hPa 0,0 l/m 10,3 km/h (2 Bft) SW 223 13,8 C 15,3 C 17,7 km/h (3 Bft)
17.08.2019 09:20 16,9 C 81 % 1013,6 hPa 0,0 l/m 13,4 km/h (3 Bft) SW 217 13,6 C 14,0 C 20,9 km/h (4 Bft)
17.08.2019 09:15 16,8 C 81 % 1013,6 hPa 0,0 l/m 11,1 km/h (2 Bft) S-SW 213 13,5 C 14,7 C 17,7 km/h (3 Bft)
17.08.2019 09:10 16,7 C 81 % 1013,5 hPa 0,0 l/m 9,0 km/h (2 Bft) S-SW 209 13,4 C 15,4 C 14,5 km/h (3 Bft)
17.08.2019 09:05 16,6 C 81 % 1013,5 hPa 0,0 l/m 10,5 km/h (2 Bft) S-SW 208 13,3 C 14,7 C 16,1 km/h (3 Bft)
17.08.2019 09:00 16,4 C 82 % 1013,6 hPa 0,0 l/m 7,1 km/h (2 Bft) SW 216 13,3 C 16,0 C 11,3 km/h (2 Bft)
17.08.2019 08:55 16,3 C 82 % 1013,6 hPa 0,0 l/m 7,0 km/h (2 Bft) S-SW 209 13,2 C 16,0 C 12,9 km/h (3 Bft)
17.08.2019 08:50 16,2 C 83 % 1013,4 hPa 0,0 l/m 5,1 km/h (1 Bft) S 183 13,3 C 16,2 C 12,9 km/h (3 Bft)
17.08.2019 08:45 16,1 C 83 % 1013,4 hPa 0,0 l/m 3,7 km/h (1 Bft) S 182 13,2 C 16,1 C 8,0 km/h (2 Bft)
17.08.2019 08:40 15,9 C 83 % 1013,3 hPa 0,0 l/m 3,0 km/h (1 Bft) S-SW 196 13,0 C 15,9 C 8,0 km/h (2 Bft)
17.08.2019 08:35 15,8 C 83 % 1013,4 hPa 0,0 l/m 3,2 km/h (1 Bft) S 191 12,9 C 15,8 C 8,0 km/h (2 Bft)
17.08.2019 08:30 15,7 C 83 % 1013,4 hPa 0,0 l/m 5,8 km/h (2 Bft) S-SO 167 12,8 C 15,7 C 11,3 km/h (2 Bft)
17.08.2019 08:25 15,6 C 83 % 1013,4 hPa 0,0 l/m 8,7 km/h (2 Bft) S-SW 202 12,7 C 14,4 C 12,9 km/h (3 Bft)
17.08.2019 08:20 15,4 C 84 % 1013,4 hPa 0,0 l/m 8,7 km/h (2 Bft) S 180 12,7 C 14,2 C 16,1 km/h (3 Bft)
17.08.2019 08:15 15,3 C 84 % 1013,3 hPa 0,0 l/m 9,9 km/h (2 Bft) SW 219 12,6 C 13,5 C 14,5 km/h (3 Bft)
17.08.2019 08:10 15,2 C 84 % 1013,5 hPa 0,0 l/m 8,5 km/h (2 Bft) SW 220 12,5 C 14,1 C 14,5 km/h (3 Bft)
17.08.2019 08:05 15,2 C 84 % 1013,3 hPa 0,0 l/m 5,6 km/h (2 Bft) SW 229 12,5 C 15,2 C 9,7 km/h (2 Bft)
17.08.2019 08:00 15,2 C 83 % 1013,2 hPa 0,0 l/m 5,0 km/h (1 Bft) SW 220 12,3 C 15,2 C 9,7 km/h (2 Bft)
17.08.2019 07:55 15,2 C 82 % 1013,3 hPa 0,0 l/m 5,8 km/h (2 Bft) W-SW 243 12,1 C 15,2 C 12,9 km/h (3 Bft)
17.08.2019 07:50 15,3 C 82 % 1013,2 hPa 0,0 l/m 6,3 km/h (2 Bft) W-SW 258 12,2 C 15,3 C 16,1 km/h (3 Bft)
17.08.2019 07:45 15,3 C 83 % 1013,3 hPa 0,0 l/m 11,5 km/h (2 Bft) SW 217 12,4 C 12,8 C 17,7 km/h (3 Bft)
17.08.2019 07:40 15,3 C 82 % 1013,3 hPa 0,0 l/m 10,4 km/h (2 Bft) SW 219 12,2 C 13,3 C 14,5 km/h (3 Bft)
17.08.2019 07:35 15,3 C 81 % 1013,3 hPa 0,0 l/m 10,2 km/h (2 Bft) SW 227 12,1 C 13,4 C 16,1 km/h (3 Bft)
17.08.2019 07:30 15,2 C 82 % 1013,3 hPa 0,0 l/m 11,0 km/h (2 Bft) W-SW 254 12,1 C 12,9 C 16,1 km/h (3 Bft)
17.08.2019 07:25 15,1 C 82 % 1013,3 hPa 0,0 l/m 11,1 km/h (2 Bft) SW 215 12,0 C 12,8 C 17,7 km/h (3 Bft)
17.08.2019 07:20 14,9 C 83 % 1013,2 hPa 0,0 l/m 11,9 km/h (2 Bft) S-SW 202 12,0 C 12,2 C 16,1 km/h (3 Bft)
17.08.2019 07:15 14,8 C 83 % 1013,1 hPa 0,0 l/m 11,5 km/h (2 Bft) S-SW 196 11,9 C 12,2 C 16,1 km/h (3 Bft)
17.08.2019 07:10 14,5 C 84 % 1013,2 hPa 0,0 l/m 11,4 km/h (2 Bft) SW 219 11,8 C 11,9 C 17,7 km/h (3 Bft)
17.08.2019 07:05 14,3 C 84 % 1013,1 hPa 0,0 l/m 12,6 km/h (3 Bft) S-SW 213 11,6 C 11,2 C 16,1 km/h (3 Bft)
17.08.2019 07:00 14,0 C 84 % 1013,1 hPa 0,0 l/m 12,6 km/h (3 Bft) S 190 11,3 C 10,9 C 17,7 km/h (3 Bft)
17.08.2019 06:55 13,8 C 84 % 1013,1 hPa 0,0 l/m 13,6 km/h (3 Bft) S-SW 209 11,1 C 10,2 C 17,7 km/h (3 Bft)
17.08.2019 06:50 13,6 C 85 % 1013,2 hPa 0,0 l/m 13,9 km/h (3 Bft) S-SW 212 11,1 C 9,9 C 19,3 km/h (3 Bft)
17.08.2019 06:45 13,4 C 84 % 1013,1 hPa 0,0 l/m 9,1 km/h (2 Bft) S-SW 198 10,8 C 11,8 C 17,7 km/h (3 Bft)
17.08.2019 06:40 13,4 C 83 % 1013,0 hPa 0,0 l/m 8,4 km/h (2 Bft) S-SW 196 10,6 C 12,2 C 16,1 km/h (3 Bft)
17.08.2019 06:35 13,5 C 81 % 1013,0 hPa 0,0 l/m 5,7 km/h (2 Bft) S 178 10,3 C 13,5 C 12,9 km/h (3 Bft)
17.08.2019 06:30 13,6 C 81 % 1012,9 hPa 0,0 l/m 2,0 km/h (1 Bft) S-SO 153 10,4 C 13,6 C 6,4 km/h (2 Bft)
17.08.2019 06:25 13,7 C 81 % 1013,0 hPa 0,0 l/m 0,0 km/h (0 Bft) SW 217 10,5 C 13,7 C 1,6 km/h (1 Bft)
17.08.2019 06:20 13,8 C 80 % 1013,1 hPa 0,0 l/m 0,2 km/h (0 Bft) SW 217 10,4 C 13,8 C 1,6 km/h (1 Bft)
17.08.2019 06:15 13,8 C 80 % 1013,0 hPa 0,0 l/m 0,4 km/h (0 Bft) SW 219 10,4 C 13,8 C 3,2 km/h (1 Bft)
17.08.2019 06:10 13,8 C 80 % 1013,1 hPa 0,0 l/m 3,4 km/h (1 Bft) SW 219 10,4 C 13,8 C 6,4 km/h (2 Bft)
17.08.2019 06:05 13,8 C 80 % 1013,2 hPa 0,0 l/m 3,1 km/h (1 Bft) S-SW 209 10,4 C 13,8 C 8,0 km/h (2 Bft)
17.08.2019 06:00 13,8 C 80 % 1013,2 hPa 0,0 l/m 2,3 km/h (1 Bft) S 188 10,4 C 13,8 C 6,4 km/h (2 Bft)
17.08.2019 05:55 13,8 C 80 % 1013,2 hPa 0,0 l/m 5,1 km/h (1 Bft) S 180 10,4 C 13,8 C 9,7 km/h (2 Bft)
17.08.2019 05:50 13,8 C 80 % 1013,1 hPa 0,0 l/m 5,7 km/h (2 Bft) S-SO 167 10,4 C 13,8 C 11,3 km/h (2 Bft)
17.08.2019 05:45 13,8 C 81 % 1013,1 hPa 0,0 l/m 8,5 km/h (2 Bft) S 182 10,6 C 12,6 C 14,5 km/h (3 Bft)
17.08.2019 05:40 13,8 C 81 % 1013,2 hPa 0,0 l/m 7,8 km/h (2 Bft) S 176 10,6 C 13,0 C 12,9 km/h (3 Bft)
17.08.2019 05:35 13,8 C 81 % 1013,3 hPa 0,0 l/m 8,8 km/h (2 Bft) S-SW 204 10,6 C 12,4 C 12,9 km/h (3 Bft)
17.08.2019 05:30 13,8 C 81 % 1013,3 hPa 0,0 l/m 7,9 km/h (2 Bft) S-SW 198 10,6 C 12,9 C 16,1 km/h (3 Bft)
17.08.2019 05:25 13,8 C 82 % 1013,2 hPa 0,0 l/m 8,3 km/h (2 Bft) S 186 10,8 C 12,7 C 14,5 km/h (3 Bft)
17.08.2019 05:20 13,8 C 82 % 1013,2 hPa 0,0 l/m 8,0 km/h (2 Bft) S 173 10,8 C 12,8 C 14,5 km/h (3 Bft)
17.08.2019 05:15 13,8 C 81 % 1013,3 hPa 0,0 l/m 7,9 km/h (2 Bft) S 185 10,6 C 12,9 C 14,5 km/h (3 Bft)
17.08.2019 05:10 13,8 C 81 % 1013,2 hPa 0,0 l/m 9,1 km/h (2 Bft) S-SO 166 10,6 C 12,2 C 16,1 km/h (3 Bft)
17.08.2019 05:05 13,8 C 81 % 1013,2 hPa 0,0 l/m 7,7 km/h (2 Bft) S 178 10,6 C 13,0 C 12,9 km/h (3 Bft)
17.08.2019 05:00 13,7 C 81 % 1013,3 hPa 0,0 l/m 8,4 km/h (2 Bft) S 186 10,5 C 12,5 C 12,9 km/h (3 Bft)
17.08.2019 04:55 13,7 C 81 % 1013,2 hPa 0,0 l/m 9,1 km/h (2 Bft) S 190 10,5 C 12,1 C 14,5 km/h (3 Bft)
17.08.2019 04:50 13,7 C 81 % 1013,3 hPa 0,0 l/m 10,5 km/h (2 Bft) S 175 10,5 C 11,4 C 16,1 km/h (3 Bft)
17.08.2019 04:45 13,7 C 81 % 1013,2 hPa 0,0 l/m 11,6 km/h (2 Bft) S 190 10,5 C 10,9 C 17,7 km/h (3 Bft)
17.08.2019 04:40 13,7 C 81 % 1013,3 hPa 0,0 l/m 7,6 km/h (2 Bft) S-SW 205 10,5 C 13,0 C 14,5 km/h (3 Bft)
17.08.2019 04:35 13,7 C 81 % 1013,4 hPa 0,0 l/m 9,0 km/h (2 Bft) S-SW 202 10,5 C 12,2 C 14,5 km/h (3 Bft)
17.08.2019 04:30 13,7 C 81 % 1013,4 hPa 0,0 l/m 6,4 km/h (2 Bft) S 185 10,5 C 13,7 C 11,3 km/h (2 Bft)
17.08.2019 04:25 13,7 C 81 % 1013,3 hPa 0,0 l/m 5,8 km/h (2 Bft) S 188 10,5 C 13,7 C 9,7 km/h (2 Bft)
17.08.2019 04:20 13,7 C 81 % 1013,4 hPa 0,0 l/m 4,9 km/h (1 Bft) S 190 10,5 C 13,7 C 8,0 km/h (2 Bft)
17.08.2019 04:15 13,8 C 82 % 1013,4 hPa 0,0 l/m 5,3 km/h (1 Bft) S 188 10,8 C 13,8 C 8,0 km/h (2 Bft)
17.08.2019 04:10 13,8 C 82 % 1013,4 hPa 0,0 l/m 5,7 km/h (2 Bft) S 171 10,8 C 13,8 C 9,7 km/h (2 Bft)
17.08.2019 04:05 14,0 C 82 % 1013,3 hPa 0,0 l/m 6,7 km/h (2 Bft) SO 139 11,0 C 13,8 C 11,3 km/h (2 Bft)
17.08.2019 04:00 14,2 C 81 % 1013,3 hPa 0,0 l/m 7,0 km/h (2 Bft) SO 135 11,0 C 13,8 C 12,9 km/h (3 Bft)
17.08.2019 03:55 14,3 C 80 % 1013,4 hPa 0,0 l/m 5,5 km/h (2 Bft) SO 134 10,9 C 14,3 C 8,0 km/h (2 Bft)
17.08.2019 03:50 14,4 C 80 % 1013,5 hPa 0,0 l/m 6,0 km/h (2 Bft) SO 134 11,0 C 14,4 C 8,0 km/h (2 Bft)
17.08.2019 03:45 14,5 C 80 % 1013,4 hPa 0,0 l/m 4,8 km/h (1 Bft) SO 127 11,1 C 14,5 C 8,0 km/h (2 Bft)
17.08.2019 03:40 14,5 C 80 % 1013,6 hPa 0,0 l/m 6,7 km/h (2 Bft) S-SO 156 11,1 C 14,3 C 11,3 km/h (2 Bft)
17.08.2019 03:35 14,4 C 80 % 1013,6 hPa 0,0 l/m 8,7 km/h (2 Bft) S 178 11,0 C 13,1 C 17,7 km/h (3 Bft)
17.08.2019 03:30 14,3 C 81 % 1013,7 hPa 0,0 l/m 8,2 km/h (2 Bft) S 182 11,1 C 13,3 C 14,5 km/h (3 Bft)
17.08.2019 03:25 14,2 C 81 % 1013,9 hPa 0,0 l/m 9,4 km/h (2 Bft) S-SW 193 11,0 C 12,5 C 14,5 km/h (3 Bft)
17.08.2019 03:20 14,1 C 82 % 1013,9 hPa 0,0 l/m 8,2 km/h (2 Bft) S 180 11,1 C 13,0 C 12,9 km/h (3 Bft)
17.08.2019 03:15 13,9 C 82 % 1014,1 hPa 0,0 l/m 7,7 km/h (2 Bft) S 190 10,9 C 13,1 C 12,9 km/h (3 Bft)
17.08.2019 03:10 13,8 C 83 % 1013,9 hPa 0,0 l/m 7,4 km/h (2 Bft) S-SW 198 11,0 C 13,2 C 12,9 km/h (3 Bft)
17.08.2019 03:05 13,6 C 83 % 1013,9 hPa 0,0 l/m 9,6 km/h (2 Bft) S 191 10,8 C 11,8 C 14,5 km/h (3 Bft)
17.08.2019 03:00 13,4 C 83 % 1014,0 hPa 0,0 l/m 8,3 km/h (2 Bft) S 178 10,6 C 12,2 C 12,9 km/h (3 Bft)
17.08.2019 02:55 13,3 C 83 % 1014,1 hPa 0,0 l/m 7,6 km/h (2 Bft) S 186 10,5 C 12,6 C 12,9 km/h (3 Bft)
17.08.2019 02:50 13,1 C 85 % 1014,1 hPa 0,0 l/m 6,5 km/h (2 Bft) S-SW 196 10,6 C 13,1 C 9,7 km/h (2 Bft)
17.08.2019 02:45 12,9 C 85 % 1014,0 hPa 0,0 l/m 6,6 km/h (2 Bft) S 186 10,4 C 12,8 C 11,3 km/h (2 Bft)
17.08.2019 02:40 12,8 C 86 % 1014,0 hPa 0,0 l/m 8,0 km/h (2 Bft) S 179 10,5 C 11,8 C 11,3 km/h (2 Bft)
17.08.2019 02:35 12,7 C 87 % 1014,1 hPa 0,0 l/m 8,9 km/h (2 Bft) S 174 10,6 C 11,2 C 14,5 km/h (3 Bft)
17.08.2019 02:30 12,6 C 86 % 1014,0 hPa 0,0 l/m 9,6 km/h (2 Bft) S-SW 194 10,3 C 10,7 C 14,5 km/h (3 Bft)
17.08.2019 02:25 12,5 C 86 % 1014,0 hPa 0,0 l/m 7,8 km/h (2 Bft) S 182 10,2 C 11,6 C 11,3 km/h (2 Bft)
17.08.2019 02:20 12,6 C 84 % 1014,0 hPa 0,0 l/m 7,4 km/h (2 Bft) S 169 10,0 C 12,0 C 11,3 km/h (2 Bft)
17.08.2019 02:15 12,7 C 84 % 1014,2 hPa 0,0 l/m 5,3 km/h (1 Bft) S 181 10,1 C 12,7 C 11,3 km/h (2 Bft)
17.08.2019 02:10 12,8 C 83 % 1014,2 hPa 0,0 l/m 4,6 km/h (1 Bft) S 184 10,0 C 12,8 C 8,0 km/h (2 Bft)
17.08.2019 02:05 12,9 C 83 % 1014,3 hPa 0,0 l/m 1,3 km/h (1 Bft) S-SW 199 10,1 C 12,9 C 3,2 km/h (1 Bft)
17.08.2019 02:00 13,1 C 83 % 1014,4 hPa 0,0 l/m 0,3 km/h (0 Bft) S 180 10,3 C 13,1 C 3,2 km/h (1 Bft)
17.08.2019 01:55 13,2 C 83 % 1014,3 hPa 0,0 l/m 2,1 km/h (1 Bft) O-SO 123 10,4 C 13,2 C 3,2 km/h (1 Bft)
17.08.2019 01:50 13,3 C 82 % 1014,3 hPa 0,0 l/m 3,9 km/h (1 Bft) O-SO 121 10,3 C 13,3 C 4,8 km/h (1 Bft)
17.08.2019 01:45 13,3 C 82 % 1014,1 hPa 0,0 l/m 4,7 km/h (1 Bft) O-SO 110 10,3 C 13,3 C 9,7 km/h (2 Bft)
17.08.2019 01:40 13,3 C 82 % 1014,2 hPa 0,0 l/m 6,5 km/h (2 Bft) S 171 10,3 C 13,3 C 12,9 km/h (3 Bft)
17.08.2019 01:35 13,2 C 83 % 1014,4 hPa 0,0 l/m 5,4 km/h (2 Bft) S 184 10,4 C 13,2 C 8,0 km/h (2 Bft)
17.08.2019 01:30 12,9 C 84 % 1014,5 hPa 0,0 l/m 8,0 km/h (2 Bft) S-SW 209 10,3 C 11,9 C 14,5 km/h (3 Bft)
17.08.2019 01:25 12,7 C 85 % 1014,5 hPa 0,0 l/m 7,8 km/h (2 Bft) S-SW 207 10,2 C 11,8 C 11,3 km/h (2 Bft)
17.08.2019 01:20 12,4 C 86 % 1014,5 hPa 0,0 l/m 5,6 km/h (2 Bft) S-SW 194 10,1 C 12,4 C 8,0 km/h (2 Bft)
17.08.2019 01:15 12,4 C 87 % 1014,4 hPa 0,0 l/m 5,9 km/h (2 Bft) S-SW 192 10,3 C 12,4 C 9,7 km/h (2 Bft)
17.08.2019 01:10 12,3 C 88 % 1014,3 hPa 0,0 l/m 5,2 km/h (1 Bft) S 181 10,4 C 12,3 C 9,7 km/h (2 Bft)
17.08.2019 01:05 12,3 C 88 % 1014,4 hPa 0,0 l/m 4,9 km/h (1 Bft) S-SO 163 10,4 C 12,3 C 8,0 km/h (2 Bft)
17.08.2019 01:00 12,2 C 89 % 1014,3 hPa 0,0 l/m 4,4 km/h (1 Bft) S-SO 168 10,4 C 12,2 C 11,3 km/h (2 Bft)
17.08.2019 00:55 12,1 C 90 % 1014,3 hPa 0,0 l/m 4,6 km/h (1 Bft) S 171 10,5 C 12,1 C 9,7 km/h (2 Bft)
17.08.2019 00:50 12,1 C 90 % 1014,4 hPa 0,0 l/m 7,1 km/h (2 Bft) S-SO 166 10,5 C 11,6 C 12,9 km/h (3 Bft)
17.08.2019 00:45 12,0 C 90 % 1014,4 hPa 0,0 l/m 7,4 km/h (2 Bft) S 173 10,4 C 11,3 C 12,9 km/h (3 Bft)
17.08.2019 00:40 12,0 C 90 % 1014,5 hPa 0,0 l/m 5,4 km/h (2 Bft) S 182 10,4 C 12,0 C 11,3 km/h (2 Bft)
17.08.2019 00:35 12,0 C 90 % 1014,5 hPa 0,0 l/m 2,9 km/h (1 Bft) S-SO 167 10,4 C 12,0 C 6,4 km/h (2 Bft)
17.08.2019 00:30 12,0 C 90 % 1014,5 hPa 0,0 l/m 5,0 km/h (1 Bft) S-SO 168 10,4 C 12,0 C 9,7 km/h (2 Bft)
17.08.2019 00:25 12,1 C 89 % 1014,6 hPa 0,0 l/m 4,3 km/h (1 Bft) S 172 10,3 C 12,1 C 8,0 km/h (2 Bft)
17.08.2019 00:20 12,1 C 89 % 1014,7 hPa 0,0 l/m 3,3 km/h (1 Bft) S-SO 166 10,3 C 12,1 C 8,0 km/h (2 Bft)
17.08.2019 00:15 12,1 C 89 % 1014,7 hPa 0,0 l/m 1,6 km/h (1 Bft) S-SW 195 10,3 C 12,1 C 3,2 km/h (1 Bft)
17.08.2019 00:10 12,2 C 89 % 1014,8 hPa 0,0 l/m 1,9 km/h (1 Bft) S-SW 197 10,4 C 12,2 C 4,8 km/h (1 Bft)
17.08.2019 00:05 12,2 C 89 % 1014,8 hPa 0,0 l/m 2,0 km/h (1 Bft) S-SO 158 10,4 C 12,2 C 3,2 km/h (1 Bft)
17.08.2019 00:00 12,3 C 89 % 1014,7 hPa 0,0 l/m 1,1 km/h (1 Bft) S-SO 157 10,5 C 12,3 C 3,2 km/h (1 Bft)
16.08.2019 23:55 12,3 C 89 % 1014,8 hPa 0,0 l/m 0,4 km/h (0 Bft) S-SO 158 10,5 C 12,3 C 3,2 km/h (1 Bft)
16.08.2019 23:50 12,4 C 88 % 1014,9 hPa 0,0 l/m 0,6 km/h (0 Bft) S-SO 153 10,5 C 12,4 C 3,2 km/h (1 Bft)
16.08.2019 23:45 12,4 C 87 % 1014,9 hPa 0,0 l/m 1,2 km/h (1 Bft) S-SO 147 10,3 C 12,4 C 3,2 km/h (1 Bft)
16.08.2019 23:40 12,5 C 87 % 1014,8 hPa 0,0 l/m 2,8 km/h (1 Bft) S-SO 147 10,4 C 12,5 C 4,8 km/h (1 Bft)
16.08.2019 23:35 12,6 C 87 % 1014,9 hPa 0,0 l/m 3,2 km/h (1 Bft) SO 146 10,5 C 12,6 C 4,8 km/h (1 Bft)
16.08.2019 23:30 12,7 C 87 % 1015,0 hPa 0,0 l/m 3,0 km/h (1 Bft) SO 135 10,6 C 12,7 C 4,8 km/h (1 Bft)
16.08.2019 23:25 12,8 C 87 % 1015,0 hPa 0,0 l/m 3,3 km/h (1 Bft) O-SO 116 10,7 C 12,8 C 6,4 km/h (2 Bft)
16.08.2019 23:20 12,8 C 87 % 1015,0 hPa 0,0 l/m 2,2 km/h (1 Bft) S 175 10,7 C 12,8 C 4,8 km/h (1 Bft)
16.08.2019 23:15 12,9 C 87 % 1014,9 hPa 0,0 l/m 0,1 km/h (0 Bft) S 190 10,8 C 12,9 C 1,6 km/h (1 Bft)
16.08.2019 23:10 13,0 C 87 % 1015,0 hPa 0,0 l/m 0,1 km/h (0 Bft) S 190 10,9 C 13,0 C 1,6 km/h (1 Bft)
16.08.2019 23:05 13,1 C 86 % 1014,9 hPa 0,0 l/m 1,3 km/h (1 Bft) S 190 10,8 C 13,1 C 3,2 km/h (1 Bft)
16.08.2019 23:00 13,1 C 86 % 1014,9 hPa 0,0 l/m 1,2 km/h (1 Bft) S-SW 192 10,8 C 13,1 C 3,2 km/h (1 Bft)
16.08.2019 22:55 13,2 C 86 % 1014,8 hPa 0,0 l/m 0,4 km/h (0 Bft) S-SW 193 10,9 C 13,2 C 3,2 km/h (1 Bft)
16.08.2019 22:50 13,2 C 86 % 1014,8 hPa 0,0 l/m 0,0 km/h (0 Bft) S-SW 193 10,9 C 13,2 C 0,0 km/h (0 Bft)
16.08.2019 22:45 13,3 C 86 % 1014,9 hPa 0,0 l/m 0,0 km/h (0 Bft) S-SW 193 11,0 C 13,3 C 1,6 km/h (1 Bft)
16.08.2019 22:40 13,4 C 85 % 1014,9 hPa 0,0 l/m 0,1 km/h (0 Bft) S-SW 193 10,9 C 13,4 C 1,6 km/h (1 Bft)
16.08.2019 22:35 13,4 C 85 % 1015,0 hPa 0,0 l/m 0,6 km/h (0 Bft) S-SW 193 10,9 C 13,4 C 1,6 km/h (1 Bft)
16.08.2019 22:30 13,6 C 85 % 1015,0 hPa 0,0 l/m 0,6 km/h (0 Bft) S-SW 193 11,1 C 13,6 C 3,2 km/h (1 Bft)
16.08.2019 22:25 13,7 C 84 % 1015,0 hPa 0,0 l/m 1,8 km/h (1 Bft) S-SW 193 11,0 C 13,7 C 3,2 km/h (1 Bft)
16.08.2019 22:20 13,8 C 84 % 1015,0 hPa 0,0 l/m 1,6 km/h (1 Bft) S-SW 193 11,1 C 13,8 C 3,2 km/h (1 Bft)
16.08.2019 22:15 14,0 C 83 % 1015,0 hPa 0,0 l/m 1,1 km/h (1 Bft) S-SW 193 11,2 C 14,0 C 3,2 km/h (1 Bft)
16.08.2019 22:10 14,2 C 82 % 1015,0 hPa 0,0 l/m 0,3 km/h (0 Bft) S-SW 193 11,2 C 14,2 C 3,2 km/h (1 Bft)
16.08.2019 22:05 14,4 C 81 % 1014,9 hPa 0,0 l/m 2,0 km/h (1 Bft) S-SW 193 11,2 C 14,4 C 3,2 km/h (1 Bft)
16.08.2019 22:00 14,6 C 80 % 1014,9 hPa 0,0 l/m 2,1 km/h (1 Bft) S-SW 194 11,2 C 14,6 C 3,2 km/h (1 Bft)
16.08.2019 21:55 14,7 C 79 % 1014,9 hPa 0,0 l/m 3,5 km/h (1 Bft) S-SW 195 11,1 C 14,7 C 4,8 km/h (1 Bft)
16.08.2019 21:50 14,8 C 78 % 1014,9 hPa 0,0 l/m 2,5 km/h (1 Bft) W-SW 240 11,0 C 14,8 C 4,8 km/h (1 Bft)
16.08.2019 21:45 15,0 C 78 % 1014,9 hPa 0,0 l/m 1,6 km/h (1 Bft) W 273 11,2 C 15,0 C 3,2 km/h (1 Bft)
16.08.2019 21:40 15,2 C 77 % 1014,9 hPa 0,0 l/m 1,8 km/h (1 Bft) W 275 11,2 C 15,2 C 3,2 km/h (1 Bft)
16.08.2019 21:35 15,3 C 76 % 1014,9 hPa 0,0 l/m 0,0 km/h (0 Bft) W 277 11,1 C 15,3 C 0,0 km/h (0 Bft)
16.08.2019 21:30 15,5 C 76 % 1015,0 hPa 0,0 l/m 0,0 km/h (0 Bft) W 277 11,3 C 15,5 C 0,0 km/h (0 Bft)
16.08.2019 21:25 15,7 C 76 % 1014,9 hPa 0,0 l/m 0,0 km/h (0 Bft) W 277 11,5 C 15,7 C 0,0 km/h (0 Bft)
16.08.2019 21:20 15,9 C 76 % 1014,9 hPa 0,0 l/m 0,6 km/h (0 Bft) W 277 11,7 C 15,9 C 1,6 km/h (1 Bft)
16.08.2019 21:15 16,1 C 76 % 1015,0 hPa 0,0 l/m 0,0 km/h (0 Bft) W 277 11,9 C 16,1 C 0,0 km/h (0 Bft)
16.08.2019 21:10 16,2 C 75 % 1015,1 hPa 0,0 l/m 0,0 km/h (0 Bft) W 277 11,8 C 16,2 C 0,0 km/h (0 Bft)
16.08.2019 21:05 16,3 C 75 % 1015,0 hPa 0,0 l/m 0,0 km/h (0 Bft) W 277 11,9 C 16,3 C 0,0 km/h (0 Bft)
16.08.2019 21:00 16,5 C 75 % 1014,9 hPa 0,0 l/m 0,0 km/h (0 Bft) W 277 12,1 C 16,5 C 0,0 km/h (0 Bft)
16.08.2019 20:55 16,7 C 75 % 1014,9 hPa 0,0 l/m 0,0 km/h (0 Bft) W 277 12,2 C 16,7 C 0,0 km/h (0 Bft)
16.08.2019 20:50 17,1 C 75 % 1015,0 hPa 0,0 l/m 0,0 km/h (0 Bft) W 277 12,6 C 17,1 C 0,0 km/h (0 Bft)
16.08.2019 20:45 17,3 C 74 % 1014,9 hPa 0,0 l/m 0,0 km/h (0 Bft) W 277 12,6 C 17,3 C 0,0 km/h (0 Bft)
16.08.2019 20:40 17,7 C 73 % 1014,9 hPa 0,0 l/m 0,0 km/h (0 Bft) W 277 12,8 C 17,7 C 0,0 km/h (0 Bft)
16.08.2019 20:35 18,1 C 71 % 1014,8 hPa 0,0 l/m 0,0 km/h (0 Bft) W 277 12,8 C 18,1 C 0,0 km/h (0 Bft)
16.08.2019 20:30 18,4 C 70 % 1014,7 hPa 0,0 l/m 0,0 km/h (0 Bft) W 277 12,8 C 18,4 C 0,0 km/h (0 Bft)
16.08.2019 20:25 18,9 C 69 % 1014,8 hPa 0,0 l/m 0,6 km/h (0 Bft) W 277 13,1 C 18,9 C 3,2 km/h (1 Bft)
16.08.2019 20:20 19,4 C 69 % 1014,8 hPa 0,0 l/m 1,5 km/h (1 Bft) W 277 13,6 C 19,4 C 3,2 km/h (1 Bft)
16.08.2019 20:15 19,8 C 68 % 1014,8 hPa 0,0 l/m 0,8 km/h (0 Bft) W 277 13,7 C 19,8 C 3,2 km/h (1 Bft)
16.08.2019 20:10 20,2 C 67 % 1014,7 hPa 0,0 l/m 0,1 km/h (0 Bft) W 277 13,9 C 20,2 C 1,6 km/h (1 Bft)
16.08.2019 20:05 20,5 C 66 % 1014,7 hPa 0,0 l/m 0,9 km/h (0 Bft) W 277 13,9 C 20,5 C 3,2 km/h (1 Bft)
16.08.2019 20:00 20,7 C 64 % 1014,7 hPa 0,0 l/m 0,0 km/h (0 Bft) W 277 13,6 C 20,7 C 0,0 km/h (0 Bft)
16.08.2019 19:55 20,8 C 64 % 1014,7 hPa 0,0 l/m 0,0 km/h (0 Bft) W 277 13,7 C 20,8 C 0,0 km/h (0 Bft)
16.08.2019 19:50 20,8 C 58 % 1014,8 hPa 0,0 l/m 0,0 km/h (0 Bft) W 277 12,2 C 20,8 C 0,0 km/h (0 Bft)
16.08.2019 19:45 20,9 C 56 % 1014,8 hPa 0,0 l/m 0,0 km/h (0 Bft) W 277 11,8 C 20,9 C 0,0 km/h (0 Bft)
16.08.2019 19:40 21,1 C 55 % 1014,8 hPa 0,0 l/m 0,0 km/h (0 Bft) W 277 11,7 C 21,1 C 0,0 km/h (0 Bft)
16.08.2019 19:35 21,3 C 56 % 1014,9 hPa 0,0 l/m 0,0 km/h (0 Bft) W 277 12,2 C 21,3 C 0,0 km/h (0 Bft)
16.08.2019 19:30 21,4 C 56 % 1014,9 hPa 0,0 l/m 0,1 km/h (0 Bft) W 277 12,3 C 21,4 C 1,6 km/h (1 Bft)
16.08.2019 19:25 21,5 C 56 % 1014,9 hPa 0,0 l/m 2,2 km/h (1 Bft) W 277 12,3 C 21,5 C 4,8 km/h (1 Bft)
16.08.2019 19:20 21,5 C 56 % 1014,8 hPa 0,0 l/m 1,4 km/h (1 Bft) W 273 12,3 C 21,5 C 3,2 km/h (1 Bft)
16.08.2019 19:15 21,6 C 54 % 1014,9 hPa 0,0 l/m 0,1 km/h (0 Bft) W 271 11,9 C 21,6 C 1,6 km/h (1 Bft)
16.08.2019 19:10 21,6 C 56 % 1014,9 hPa 0,0 l/m 0,5 km/h (0 Bft) W 271 12,4 C 21,6 C 3,2 km/h (1 Bft)
16.08.2019 19:05 21,7 C 54 % 1014,7 hPa 0,0 l/m 0,3 km/h (0 Bft) W 271 12,0 C 21,7 C 1,6 km/h (1 Bft)
16.08.2019 19:00 21,7 C 55 % 1014,7 hPa 0,0 l/m 1,4 km/h (1 Bft) W 271 12,3 C 21,7 C 3,2 km/h (1 Bft)
16.08.2019 18:55 21,8 C 54 % 1014,8 hPa 0,0 l/m 3,5 km/h (1 Bft) W 277 12,1 C 21,8 C 6,4 km/h (2 Bft)
16.08.2019 18:50 21,8 C 54 % 1014,9 hPa 0,0 l/m 3,3 km/h (1 Bft) W 261 12,1 C 21,8 C 4,8 km/h (1 Bft)
16.08.2019 18:45 21,9 C 53 % 1014,9 hPa 0,0 l/m 3,4 km/h (1 Bft) W 279 11,9 C 21,9 C 6,4 km/h (2 Bft)
16.08.2019 18:40 21,9 C 54 % 1015,0 hPa 0,0 l/m 4,7 km/h (1 Bft) W 261 12,2 C 21,9 C 9,7 km/h (2 Bft)
16.08.2019 18:35 21,9 C 53 % 1015,1 hPa 0,0 l/m 4,6 km/h (1 Bft) W-SW 246 11,9 C 21,9 C 6,4 km/h (2 Bft)
16.08.2019 18:30 21,9 C 54 % 1015,1 hPa 0,0 l/m 5,1 km/h (1 Bft) W 262 12,2 C 21,9 C 11,3 km/h (2 Bft)
16.08.2019 18:25 21,9 C 55 % 1015,2 hPa 0,0 l/m 6,2 km/h (2 Bft) W 263 12,4 C 21,9 C 11,3 km/h (2 Bft)
16.08.2019 18:20 21,9 C 54 % 1015,3 hPa 0,0 l/m 6,0 km/h (2 Bft) W 266 12,2 C 21,9 C 11,3 km/h (2 Bft)
16.08.2019 18:15 21,9 C 54 % 1015,3 hPa 0,0 l/m 4,4 km/h (1 Bft) SW 230 12,2 C 21,9 C 9,7 km/h (2 Bft)
16.08.2019 18:10 22,1 C 54 % 1015,4 hPa 0,0 l/m 3,9 km/h (1 Bft) W 269 12,3 C 22,1 C 9,7 km/h (2 Bft)
16.08.2019 18:05 22,1 C 55 % 1015,5 hPa 0,0 l/m 3,6 km/h (1 Bft) W-NW 302 12,6 C 22,1 C 9,7 km/h (2 Bft)
16.08.2019 18:00 22,1 C 51 % 1015,6 hPa 0,0 l/m 0,8 km/h (0 Bft) W-NW 293 11,5 C 22,1 C 3,2 km/h (1 Bft)
16.08.2019 17:55 22,2 C 49 % 1015,5 hPa 0,0 l/m 0,0 km/h (0 Bft) W 273 11,0 C 22,2 C 0,0 km/h (0 Bft)
16.08.2019 17:50 22,3 C 50 % 1015,6 hPa 0,0 l/m 1,8 km/h (1 Bft) W 273 11,4 C 22,3 C 6,4 km/h (2 Bft)
16.08.2019 17:45 22,3 C 52 % 1015,7 hPa 0,0 l/m 9,7 km/h (2 Bft) W-SW 242 12,0 C 21,3 C 14,5 km/h (3 Bft)
16.08.2019 17:40 22,2 C 56 % 1015,6 hPa 0,0 l/m 1,8 km/h (1 Bft) SW 236 13,0 C 22,2 C 6,4 km/h (2 Bft)
16.08.2019 17:35 22,0 C 55 % 1015,7 hPa 0,0 l/m 4,7 km/h (1 Bft) S-SW 207 12,5 C 22,0 C 8,0 km/h (2 Bft)
16.08.2019 17:30 21,9 C 53 % 1015,8 hPa 0,0 l/m 6,4 km/h (2 Bft) W-SW 242 11,9 C 21,9 C 11,3 km/h (2 Bft)
16.08.2019 17:25 22,2 C 52 % 1015,9 hPa 0,0 l/m 7,2 km/h (2 Bft) W-SW 250 11,9 C 21,9 C 12,9 km/h (3 Bft)
16.08.2019 17:20 22,6 C 52 % 1015,9 hPa 0,0 l/m 7,3 km/h (2 Bft) W-SW 242 12,2 C 22,3 C 12,9 km/h (3 Bft)
16.08.2019 17:15 22,8 C 52 % 1015,9 hPa 0,0 l/m 8,3 km/h (2 Bft) W-SW 238 12,4 C 22,2 C 14,5 km/h (3 Bft)
16.08.2019 17:10 22,8 C 54 % 1015,9 hPa 0,0 l/m 6,8 km/h (2 Bft) SW 232 13,0 C 22,7 C 11,3 km/h (2 Bft)
16.08.2019 17:05 22,7 C 51 % 1015,9 hPa 0,0 l/m 8,2 km/h (2 Bft) W 260 12,0 C 22,1 C 17,7 km/h (3 Bft)
16.08.2019 17:00 22,6 C 51 % 1016,0 hPa 0,0 l/m 3,8 km/h (1 Bft) W 273 11,9 C 22,6 C 9,7 km/h (2 Bft)
16.08.2019 16:55 22,4 C 50 % 1016,1 hPa 0,0 l/m 3,4 km/h (1 Bft) NO 41 11,5 C 22,4 C 11,3 km/h (2 Bft)
16.08.2019 16:50 22,3 C 52 % 1016,0 hPa 0,0 l/m 4,5 km/h (1 Bft) NW 323 12,0 C 22,3 C 9,7 km/h (2 Bft)
16.08.2019 16:45 22,2 C 57 % 1016,0 hPa 0,0 l/m 2,0 km/h (1 Bft) N-NO 19 13,3 C 22,2 C 11,3 km/h (2 Bft)
16.08.2019 16:40 22,0 C 55 % 1016,1 hPa 0,0 l/m 3,8 km/h (1 Bft) W-NW 295 12,5 C 22,0 C 12,9 km/h (3 Bft)
16.08.2019 16:35 22,1 C 53 % 1016,2 hPa 0,0 l/m 6,8 km/h (2 Bft) W-NW 300 12,1 C 22,0 C 12,9 km/h (3 Bft)
16.08.2019 16:30 22,2 C 52 % 1016,2 hPa 0,0 l/m 4,1 km/h (1 Bft) NW 315 11,9 C 22,2 C 8,0 km/h (2 Bft)
16.08.2019 16:25 22,2 C 54 % 1016,2 hPa 0,0 l/m 1,6 km/h (1 Bft) SW 227 12,4 C 22,2 C 6,4 km/h (2 Bft)
16.08.2019 16:20 22,3 C 54 % 1016,2 hPa 0,0 l/m 5,7 km/h (2 Bft) W-SW 256 12,5 C 22,3 C 12,9 km/h (3 Bft)
16.08.2019 16:15 22,4 C 53 % 1016,2 hPa 0,0 l/m 5,9 km/h (2 Bft) W 271 12,3 C 22,4 C 11,3 km/h (2 Bft)
16.08.2019 16:10 22,4 C 53 % 1016,3 hPa 0,0 l/m 6,3 km/h (2 Bft) W-SW 253 12,3 C 22,4 C 12,9 km/h (3 Bft)
16.08.2019 16:05 22,3 C 56 % 1016,4 hPa 0,0 l/m 7,3 km/h (2 Bft) SW 225 13,1 C 22,0 C 14,5 km/h (3 Bft)
16.08.2019 16:00 22,2 C 55 % 1016,4 hPa 0,0 l/m 11,0 km/h (2 Bft) SW 217 12,7 C 20,8 C 17,7 km/h (3 Bft)
16.08.2019 15:55 21,9 C 58 % 1016,5 hPa 0,0 l/m 8,6 km/h (2 Bft) S 186 13,3 C 21,2 C 14,5 km/h (3 Bft)
16.08.2019 15:50 21,8 C 51 % 1016,4 hPa 0,0 l/m 10,3 km/h (2 Bft) W 265 11,2 C 20,5 C 22,5 km/h (4 Bft)
16.08.2019 15:45 21,6 C 54 % 1016,5 hPa 0,0 l/m 12,2 km/h (2 Bft) W 269 11,9 C 19,8 C 17,7 km/h (3 Bft)
16.08.2019 15:40 21,5 C 54 % 1016,6 hPa 0,0 l/m 9,3 km/h (2 Bft) W-NW 285 11,8 C 20,5 C 20,9 km/h (4 Bft)
16.08.2019 15:35 21,4 C 61 % 1016,6 hPa 0,0 l/m 5,2 km/h (1 Bft) W 261 13,6 C 21,4 C 11,3 km/h (2 Bft)
16.08.2019 15:30 21,4 C 52 % 1016,6 hPa 0,0 l/m 11,0 km/h (2 Bft) W 265 11,1 C 19,9 C 22,5 km/h (4 Bft)
16.08.2019 15:25 21,5 C 56 % 1016,7 hPa 0,0 l/m 14,4 km/h (3 Bft) W-SW 247 12,3 C 19,2 C 22,5 km/h (4 Bft)
16.08.2019 15:20 21,2 C 58 % 1016,7 hPa 0,0 l/m 9,5 km/h (2 Bft) W-SW 244 12,6 C 20,1 C 22,5 km/h (4 Bft)
16.08.2019 15:15 21,0 C 55 % 1016,8 hPa 0,0 l/m 12,8 km/h (3 Bft) W 271 11,6 C 19,0 C 17,7 km/h (3 Bft)
16.08.2019 15:10 21,0 C 56 % 1016,9 hPa 0,0 l/m 16,3 km/h (3 Bft) W-SW 249 11,9 C 18,2 C 24,1 km/h (4 Bft)
16.08.2019 15:05 21,1 C 54 % 1017,0 hPa 0,0 l/m 14,6 km/h (3 Bft) W-SW 240 11,4 C 18,7 C 20,9 km/h (4 Bft)
16.08.2019 15:00 21,2 C 56 % 1016,9 hPa 0,0 l/m 16,1 km/h (3 Bft) W 269 12,1 C 18,5 C 22,5 km/h (4 Bft)
16.08.2019 14:55 21,3 C 54 % 1017,0 hPa 0,0 l/m 9,4 km/h (2 Bft) W 279 11,6 C 20,3 C 17,7 km/h (3 Bft)
16.08.2019 14:50 21,4 C 54 % 1017,0 hPa 0,0 l/m 10,7 km/h (2 Bft) W 279 11,7 C 20,0 C 24,1 km/h (4 Bft)
16.08.2019 14:45 21,3 C 56 % 1017,0 hPa 0,0 l/m 6,4 km/h (2 Bft) W-SW 252 12,2 C 21,3 C 17,7 km/h (3 Bft)
16.08.2019 14:40 21,1 C 56 % 1017,0 hPa 0,0 l/m 10,0 km/h (2 Bft) W-SW 244 12,0 C 19,9 C 16,1 km/h (3 Bft)
16.08.2019 14:35 20,8 C 53 % 1017,0 hPa 0,0 l/m 11,3 km/h (2 Bft) W 263 10,9 C 19,1 C 17,7 km/h (3 Bft)
16.08.2019 14:30 20,5 C 56 % 1017,1 hPa 0,0 l/m 12,4 km/h (2 Bft) W 259 11,4 C 18,5 C 19,3 km/h (3 Bft)
16.08.2019 14:25 20,3 C 55 % 1017,2 hPa 0,0 l/m 14,2 km/h (3 Bft) W 259 11,0 C 17,8 C 20,9 km/h (4 Bft)
16.08.2019 14:20 20,6 C 60 % 1017,2 hPa 0,0 l/m 7,2 km/h (2 Bft) SW 235 12,6 C 20,3 C 17,7 km/h (3 Bft)
16.08.2019 14:15 20,7 C 56 % 1017,3 hPa 0,0 l/m 7,8 km/h (2 Bft) SW 229 11,6 C 20,2 C 14,5 km/h (3 Bft)
16.08.2019 14:10 21,1 C 55 % 1017,3 hPa 0,0 l/m 15,2 km/h (3 Bft) W-SW 254 11,7 C 18,5 C 20,9 km/h (4 Bft)
16.08.2019 14:05 21,3 C 53 % 1017,3 hPa 0,0 l/m 16,6 km/h (3 Bft) SW 229 11,3 C 18,5 C 25,7 km/h (4 Bft)
16.08.2019 14:00 21,4 C 53 % 1017,4 hPa 0,0 l/m 13,0 km/h (3 Bft) W-SW 250 11,4 C 19,4 C 20,9 km/h (4 Bft)
16.08.2019 13:55 21,4 C 57 % 1017,4 hPa 0,0 l/m 14,9 km/h (3 Bft) W-NW 283 12,5 C 19,0 C 20,9 km/h (4 Bft)
16.08.2019 13:50 21,3 C 58 % 1017,4 hPa 0,0 l/m 15,2 km/h (3 Bft) W 279 12,7 C 18,8 C 22,5 km/h (4 Bft)
16.08.2019 13:45 20,8 C 64 % 1017,5 hPa 0,0 l/m 16,5 km/h (3 Bft) SW 218 13,7 C 17,9 C 24,1 km/h (4 Bft)
16.08.2019 13:40 20,6 C 60 % 1017,7 hPa 0,0 l/m 16,1 km/h (3 Bft) SW 226 12,6 C 17,7 C 22,5 km/h (4 Bft)
16.08.2019 13:35 20,9 C 58 % 1017,8 hPa 0,0 l/m 17,8 km/h (3 Bft) SW 223 12,3 C 17,8 C 33,8 km/h (5 Bft)
16.08.2019 13:30 21,1 C 66 % 1017,7 hPa 0,0 l/m 12,9 km/h (3 Bft) W 277 14,5 C 19,1 C 19,3 km/h (3 Bft)
16.08.2019 13:25 20,8 C 62 % 1017,7 hPa 0,0 l/m 18,4 km/h (3 Bft) SW 224 13,2 C 17,5 C 25,7 km/h (4 Bft)
16.08.2019 13:20 20,6 C 63 % 1017,8 hPa 0,0 l/m 12,9 km/h (3 Bft) W-SW 245 13,3 C 18,5 C 27,4 km/h (5 Bft)
16.08.2019 13:15 20,3 C 60 % 1017,9 hPa 0,0 l/m 11,1 km/h (2 Bft) SW 226 12,3 C 18,6 C 19,3 km/h (3 Bft)
16.08.2019 13:10 20,1 C 61 % 1017,9 hPa 0,0 l/m 18,0 km/h (3 Bft) W-SW 238 12,3 C 16,7 C 24,1 km/h (4 Bft)
16.08.2019 13:05 20,3 C 59 % 1017,9 hPa 0,0 l/m 18,2 km/h (3 Bft) W-SW 242 12,0 C 16,9 C 24,1 km/h (4 Bft)
16.08.2019 13:00 20,6 C 60 % 1018,0 hPa 0,0 l/m 13,3 km/h (3 Bft) W-SW 251 12,6 C 18,4 C 22,5 km/h (4 Bft)
_ Min-Zeit 00:45 17:55 06:30 - 06:25 - - 02:20 06:50 22:50
Minimum _ 12,0 C 49 % 1012,9 hPa - 0,0 km/h (0 Bft) - - 10,0 C 9,9 C 0,0 km/h (0 Bft)
_ Max-Zeit 17:15 00:55 13:00 12:50 13:25 - - 11:10 17:10 13:35
Maximum _ 22,8 C 90 % 1018,0 hPa 0,0 l/m 18,4 km/h
SW (3 Bft)
- - 16,7 C 22,7 C 33,8 km/h
W-SW (5 Bft)
Durchschnitt _ 17,6 C 72 % 1014,8 hPa #0,0 l/m 6,7 km/h (2 Bft) S - 12,2 C 16,8 C 11,7 km/h (2 Bft)